sensor_id;sensor_type;location;lat;lon;timestamp;pressure;altitude;pressure_sealevel;temperature;humidity
74552;BME280;63025;55.472;38.432;2023-09-12T00:01:04;100683.50;;;5.63;100.00
74552;BME280;63025;55.472;38.432;2023-09-12T00:03:31;100686.50;;;5.60;100.00
74552;BME280;63025;55.472;38.432;2023-09-12T00:05:58;100679.66;;;5.57;100.00
74552;BME280;63025;55.472;38.432;2023-09-12T00:08:24;100679.97;;;5.54;100.00
74552;BME280;63025;55.472;38.432;2023-09-12T00:11:07;100690.63;;;5.54;100.00
74552;BME280;63025;55.472;38.432;2023-09-12T00:13:36;100689.97;;;5.52;100.00
74552;BME280;63025;55.472;38.432;2023-09-12T00:16:02;100692.13;;;5.48;100.00
74552;BME280;63025;55.472;38.432;2023-09-12T00:18:28;100688.94;;;5.45;100.00
74552;BME280;63025;55.472;38.432;2023-09-12T00:20:54;100696.25;;;5.43;100.00
74552;BME280;63025;55.472;38.432;2023-09-12T00:23:21;100700.06;;;5.40;100.00
74552;BME280;63025;55.472;38.432;2023-09-12T00:25:49;100699.22;;;5.40;100.00
74552;BME280;63025;55.472;38.432;2023-09-12T00:28:15;100697.59;;;5.39;100.00
74552;BME280;63025;55.472;38.432;2023-09-12T00:30:41;100696.06;;;5.36;100.00
74552;BME280;63025;55.472;38.432;2023-09-12T00:33:07;100704.22;;;5.35;100.00
74552;BME280;63025;55.472;38.432;2023-09-12T00:35:32;100704.53;;;5.32;100.00
74552;BME280;63025;55.472;38.432;2023-09-12T00:37:58;100695.84;;;5.30;100.00
74552;BME280;63025;55.472;38.432;2023-09-12T00:40:24;100699.69;;;5.27;100.00
74552;BME280;63025;55.472;38.432;2023-09-12T00:42:50;100695.50;;;5.25;100.00
74552;BME280;63025;55.472;38.432;2023-09-12T00:45:15;100697.66;;;5.21;100.00
74552;BME280;63025;55.472;38.432;2023-09-12T00:47:42;100695.47;;;5.16;100.00
74552;BME280;63025;55.472;38.432;2023-09-12T00:50:09;100707.13;;;5.15;100.00
74552;BME280;63025;55.472;38.432;2023-09-12T00:52:38;100702.78;;;5.14;100.00
74552;BME280;63025;55.472;38.432;2023-09-12T00:55:04;100696.78;;;5.12;100.00
74552;BME280;63025;55.472;38.432;2023-09-12T00:57:33;100713.75;;;5.11;100.00
74552;BME280;63025;55.472;38.432;2023-09-12T01:00:02;100710.41;;;5.09;100.00
74552;BME280;63025;55.472;38.432;2023-09-12T01:02:40;100714.09;;;5.08;100.00
74552;BME280;63025;55.472;38.432;2023-09-12T01:05:07;100706.09;;;5.08;100.00
74552;BME280;63025;55.472;38.432;2023-09-12T01:07:34;100706.41;;;5.05;100.00
74552;BME280;63025;55.472;38.432;2023-09-12T01:10:01;100706.56;;;5.04;100.00
74552;BME280;63025;55.472;38.432;2023-09-12T01:12:30;100714.69;;;5.02;100.00
74552;BME280;63025;55.472;38.432;2023-09-12T01:14:56;100700.03;;;4.98;100.00
74552;BME280;63025;55.472;38.432;2023-09-12T01:17:25;100710.69;;;4.98;100.00
74552;BME280;63025;55.472;38.432;2023-09-12T01:19:52;100697.00;;;4.93;100.00
74552;BME280;63025;55.472;38.432;2023-09-12T01:22:34;100712.16;;;4.93;100.00
74552;BME280;63025;55.472;38.432;2023-09-12T01:27:37;100707.28;;;4.88;100.00
74552;BME280;63025;55.472;38.432;2023-09-12T01:30:05;100710.78;;;4.89;100.00
74552;BME280;63025;55.472;38.432;2023-09-12T01:32:32;100715.44;;;4.87;100.00
74552;BME280;63025;55.472;38.432;2023-09-12T01:34:59;100717.41;;;4.85;100.00
74552;BME280;63025;55.472;38.432;2023-09-12T01:37:25;100719.25;;;4.84;100.00
74552;BME280;63025;55.472;38.432;2023-09-12T01:39:52;100714.38;;;4.79;100.00
74552;BME280;63025;55.472;38.432;2023-09-12T01:42:20;100720.53;;;4.80;100.00
74552;BME280;63025;55.472;38.432;2023-09-12T01:44:49;100719.69;;;4.79;100.00
74552;BME280;63025;55.472;38.432;2023-09-12T01:47:17;100710.53;;;4.74;100.00
74552;BME280;63025;55.472;38.432;2023-09-12T01:49:47;100724.81;;;4.73;100.00
74552;BME280;63025;55.472;38.432;2023-09-12T01:52:14;100716.97;;;4.71;100.00
74552;BME280;63025;55.472;38.432;2023-09-12T01:54:41;100719.09;;;4.68;100.00
74552;BME280;63025;55.472;38.432;2023-09-12T01:57:08;100717.91;;;4.62;100.00
74552;BME280;63025;55.472;38.432;2023-09-12T01:59:34;100719.88;;;4.60;100.00
74552;BME280;63025;55.472;38.432;2023-09-12T02:02:00;100722.41;;;4.62;100.00
74552;BME280;63025;55.472;38.432;2023-09-12T02:04:26;100717.06;;;4.62;100.00
74552;BME280;63025;55.472;38.432;2023-09-12T02:06:52;100728.88;;;4.59;100.00
74552;BME280;63025;55.472;38.432;2023-09-12T02:09:17;100729.69;;;4.60;100.00
74552;BME280;63025;55.472;38.432;2023-09-12T02:11:43;100724.72;;;4.57;100.00
74552;BME280;63025;55.472;38.432;2023-09-12T02:14:09;100727.38;;;4.57;100.00
74552;BME280;63025;55.472;38.432;2023-09-12T02:16:36;100736.63;;;4.53;100.00
74552;BME280;63025;55.472;38.432;2023-09-12T02:19:05;100735.94;;;4.51;100.00
74552;BME280;63025;55.472;38.432;2023-09-12T02:21:30;100731.63;;;4.50;100.00
74552;BME280;63025;55.472;38.432;2023-09-12T02:23:56;100738.75;;;4.49;100.00
74552;BME280;63025;55.472;38.432;2023-09-12T02:26:22;100737.91;;;4.49;100.00
74552;BME280;63025;55.472;38.432;2023-09-12T02:28:48;100736.09;;;4.49;100.00
74552;BME280;63025;55.472;38.432;2023-09-12T02:31:14;100737.41;;;4.45;100.00
74552;BME280;63025;55.472;38.432;2023-09-12T02:33:40;100746.22;;;4.46;100.00
74552;BME280;63025;55.472;38.432;2023-09-12T02:36:06;100748.22;;;4.43;100.00
74552;BME280;63025;55.472;38.432;2023-09-12T02:38:32;100746.53;;;4.42;100.00
74552;BME280;63025;55.472;38.432;2023-09-12T02:40:58;100750.31;;;4.40;100.00
74552;BME280;63025;55.472;38.432;2023-09-12T02:43:24;100753.97;;;4.39;100.00
74552;BME280;63025;55.472;38.432;2023-09-12T02:45:49;100753.13;;;4.38;100.00
74552;BME280;63025;55.472;38.432;2023-09-12T02:48:15;100755.09;;;4.36;100.00
74552;BME280;63025;55.472;38.432;2023-09-12T02:50:41;100756.28;;;4.34;100.00
74552;BME280;63025;55.472;38.432;2023-09-12T02:53:07;100752.91;;;4.32;100.00
74552;BME280;63025;55.472;38.432;2023-09-12T02:55:33;100751.09;;;4.32;100.00
74552;BME280;63025;55.472;38.432;2023-09-12T02:57:58;100759.91;;;4.33;100.00
74552;BME280;63025;55.472;38.432;2023-09-12T03:00:24;100758.78;;;4.35;100.00
74552;BME280;63025;55.472;38.432;2023-09-12T03:02:50;100750.41;;;4.30;100.00
74552;BME280;63025;55.472;38.432;2023-09-12T03:05:16;100760.06;;;4.31;100.00
74552;BME280;63025;55.472;38.432;2023-09-12T03:07:42;100760.75;;;4.33;100.00
74552;BME280;63025;55.472;38.432;2023-09-12T03:10:08;100769.44;;;4.35;100.00
74552;BME280;63025;55.472;38.432;2023-09-12T03:12:35;100756.13;;;4.35;100.00
74552;BME280;63025;55.472;38.432;2023-09-12T03:15:02;100757.63;;;4.38;100.00
74552;BME280;63025;55.472;38.432;2023-09-12T03:17:29;100757.75;;;4.36;100.00
74552;BME280;63025;55.472;38.432;2023-09-12T03:19:55;100771.06;;;4.36;100.00
74552;BME280;63025;55.472;38.432;2023-09-12T03:22:21;100761.25;;;4.37;100.00
74552;BME280;63025;55.472;38.432;2023-09-12T03:24:47;100770.78;;;4.39;100.00
74552;BME280;63025;55.472;38.432;2023-09-12T03:27:13;100768.50;;;4.45;100.00
74552;BME280;63025;55.472;38.432;2023-09-12T03:29:39;100766.22;;;4.50;100.00
74552;BME280;63025;55.472;38.432;2023-09-12T03:32:05;100764.25;;;4.52;100.00
74552;BME280;63025;55.472;38.432;2023-09-12T03:34:30;100775.09;;;4.58;100.00
74552;BME280;63025;55.472;38.432;2023-09-12T03:36:56;100776.34;;;4.64;100.00
74552;BME280;63025;55.472;38.432;2023-09-12T03:39:22;100784.53;;;4.70;100.00
74552;BME280;63025;55.472;38.432;2023-09-12T03:41:48;100784.78;;;4.77;100.00
74552;BME280;63025;55.472;38.432;2023-09-12T03:44:14;100783.16;;;4.84;100.00
74552;BME280;63025;55.472;38.432;2023-09-12T03:46:40;100778.19;;;4.89;100.00
74552;BME280;63025;55.472;38.432;2023-09-12T03:49:06;100773.59;;;4.99;100.00
74552;BME280;63025;55.472;38.432;2023-09-12T03:51:33;100785.34;;;5.06;100.00
74552;BME280;63025;55.472;38.432;2023-09-12T03:54:00;100776.03;;;5.10;100.00
74552;BME280;63025;55.472;38.432;2023-09-12T03:56:26;100786.13;;;5.25;100.00
74552;BME280;63025;55.472;38.432;2023-09-12T03:58:52;100787.16;;;5.32;100.00
74552;BME280;63025;55.472;38.432;2023-09-12T04:01:19;100793.88;;;5.44;100.00
74552;BME280;63025;55.472;38.432;2023-09-12T04:03:45;100797.97;;;5.56;100.00
74552;BME280;63025;55.472;38.432;2023-09-12T04:06:13;100792.50;;;5.66;100.00
74552;BME280;63025;55.472;38.432;2023-09-12T04:08:39;100797.41;;;5.78;100.00
74552;BME280;63025;55.472;38.432;2023-09-12T04:11:04;100795.00;;;5.93;100.00
74552;BME280;63025;55.472;38.432;2023-09-12T04:13:30;100794.22;;;6.09;100.00
74552;BME280;63025;55.472;38.432;2023-09-12T04:15:56;100803.44;;;6.22;100.00
74552;BME280;63025;55.472;38.432;2023-09-12T04:18:22;100806.47;;;6.36;100.00
74552;BME280;63025;55.472;38.432;2023-09-12T04:20:48;100809.66;;;6.47;100.00
74552;BME280;63025;55.472;38.432;2023-09-12T04:23:14;100814.53;;;6.60;100.00
74552;BME280;63025;55.472;38.432;2023-09-12T04:25:45;100821.06;;;6.74;100.00
74552;BME280;63025;55.472;38.432;2023-09-12T04:28:11;100813.72;;;6.84;100.00
74552;BME280;63025;55.472;38.432;2023-09-12T04:30:37;100813.72;;;6.92;100.00
74552;BME280;63025;55.472;38.432;2023-09-12T04:33:05;100816.38;;;7.00;100.00
74552;BME280;63025;55.472;38.432;2023-09-12T04:35:34;100818.41;;;7.14;100.00
74552;BME280;63025;55.472;38.432;2023-09-12T04:38:01;100817.69;;;7.28;100.00
74552;BME280;63025;55.472;38.432;2023-09-12T04:40:27;100819.84;;;7.41;100.00
74552;BME280;63025;55.472;38.432;2023-09-12T04:42:53;100819.00;;;7.49;100.00
74552;BME280;63025;55.472;38.432;2023-09-12T04:45:19;100823.81;;;7.61;100.00
74552;BME280;63025;55.472;38.432;2023-09-12T04:47:45;100823.97;;;7.76;100.00
74552;BME280;63025;55.472;38.432;2023-09-12T04:50:11;100817.88;;;7.90;100.00
74552;BME280;63025;55.472;38.432;2023-09-12T04:52:38;100822.84;;;8.01;100.00
74552;BME280;63025;55.472;38.432;2023-09-12T04:55:04;100823.31;;;8.13;100.00
74552;BME280;63025;55.472;38.432;2023-09-12T04:57:30;100817.22;;;8.27;100.00
74552;BME280;63025;55.472;38.432;2023-09-12T04:59:57;100831.09;;;8.39;100.00
74552;BME280;63025;55.472;38.432;2023-09-12T05:02:26;100821.81;;;8.50;100.00
74552;BME280;63025;55.472;38.432;2023-09-12T05:04:52;100828.25;;;8.63;100.00
74552;BME280;63025;55.472;38.432;2023-09-12T05:07:18;100823.13;;;8.76;100.00
74552;BME280;63025;55.472;38.432;2023-09-12T05:09:44;100815.50;;;8.88;100.00
74552;BME280;63025;55.472;38.432;2023-09-12T05:12:10;100817.78;;;8.99;100.00
74552;BME280;63025;55.472;38.432;2023-09-12T05:14:35;100820.38;;;9.07;100.00
74552;BME280;63025;55.472;38.432;2023-09-12T05:17:01;100818.28;;;9.17;100.00
74552;BME280;63025;55.472;38.432;2023-09-12T05:19:30;100819.22;;;9.25;100.00
74552;BME280;63025;55.472;38.432;2023-09-12T05:21:55;100818.03;;;9.27;100.00
74552;BME280;63025;55.472;38.432;2023-09-12T05:24:21;100817.59;;;9.38;100.00
74552;BME280;63025;55.472;38.432;2023-09-12T05:26:47;100821.13;;;9.53;100.00
74552;BME280;63025;55.472;38.432;2023-09-12T05:29:15;100821.97;;;9.69;100.00
74552;BME280;63025;55.472;38.432;2023-09-12T05:31:41;100825.84;;;9.81;100.00
74552;BME280;63025;55.472;38.432;2023-09-12T05:34:07;100832.50;;;10.00;100.00
74552;BME280;63025;55.472;38.432;2023-09-12T05:36:32;100833.16;;;10.16;100.00
74552;BME280;63025;55.472;38.432;2023-09-12T05:38:58;100835.66;;;10.33;100.00
74552;BME280;63025;55.472;38.432;2023-09-12T05:41:24;100840.06;;;10.40;100.00
74552;BME280;63025;55.472;38.432;2023-09-12T05:43:50;100837.50;;;10.47;100.00
74552;BME280;63025;55.472;38.432;2023-09-12T05:46:16;100828.94;;;10.58;100.00
74552;BME280;63025;55.472;38.432;2023-09-12T05:48:41;100830.91;;;10.71;100.00
74552;BME280;63025;55.472;38.432;2023-09-12T05:51:07;100832.53;;;10.86;100.00
74552;BME280;63025;55.472;38.432;2023-09-12T05:53:33;100831.63;;;11.00;100.00
74552;BME280;63025;55.472;38.432;2023-09-12T05:55:59;100822.00;;;11.13;100.00
74552;BME280;63025;55.472;38.432;2023-09-12T05:58:25;100830.66;;;11.29;100.00
74552;BME280;63025;55.472;38.432;2023-09-12T06:00:51;100831.44;;;11.51;100.00
74552;BME280;63025;55.472;38.432;2023-09-12T06:03:17;100836.13;;;11.70;100.00
74552;BME280;63025;55.472;38.432;2023-09-12T06:05:43;100829.81;;;11.85;100.00
74552;BME280;63025;55.472;38.432;2023-09-12T06:08:09;100830.53;;;12.00;100.00
74552;BME280;63025;55.472;38.432;2023-09-12T06:10:35;100829.31;;;12.09;100.00
74552;BME280;63025;55.472;38.432;2023-09-12T06:13:00;100825.84;;;12.22;100.00
74552;BME280;63025;55.472;38.432;2023-09-12T06:15:26;100829.44;;;12.35;100.00
74552;BME280;63025;55.472;38.432;2023-09-12T06:17:52;100832.16;;;12.48;100.00
74552;BME280;63025;55.472;38.432;2023-09-12T06:20:19;100832.41;;;12.54;100.00
74552;BME280;63025;55.472;38.432;2023-09-12T06:22:45;100834.47;;;12.58;100.00
74552;BME280;63025;55.472;38.432;2023-09-12T06:25:11;100832.03;;;12.70;100.00
74552;BME280;63025;55.472;38.432;2023-09-12T06:27:37;100832.47;;;12.80;100.00
74552;BME280;63025;55.472;38.432;2023-09-12T06:30:03;100842.66;;;12.84;100.00
74552;BME280;63025;55.472;38.432;2023-09-12T06:32:33;100840.38;;;12.95;100.00
74552;BME280;63025;55.472;38.432;2023-09-12T06:34:59;100846.41;;;13.10;100.00
74552;BME280;63025;55.472;38.432;2023-09-12T06:37:25;100842.31;;;13.34;100.00
74552;BME280;63025;55.472;38.432;2023-09-12T06:39:51;100838.13;;;13.51;100.00
74552;BME280;63025;55.472;38.432;2023-09-12T06:42:17;100848.53;;;13.67;100.00
74552;BME280;63025;55.472;38.432;2023-09-12T06:44:43;100843.72;;;13.76;100.00
74552;BME280;63025;55.472;38.432;2023-09-12T06:47:09;100841.00;;;13.82;100.00
74552;BME280;63025;55.472;38.432;2023-09-12T06:49:36;100835.56;;;13.95;100.00
74552;BME280;63025;55.472;38.432;2023-09-12T06:52:04;100839.06;;;14.03;100.00
74552;BME280;63025;55.472;38.432;2023-09-12T06:54:30;100842.63;;;14.10;100.00
74552;BME280;63025;55.472;38.432;2023-09-12T06:56:56;100841.13;;;14.20;100.00
74552;BME280;63025;55.472;38.432;2023-09-12T06:59:22;100832.56;;;14.30;100.00
74552;BME280;63025;55.472;38.432;2023-09-12T07:01:48;100840.84;;;14.35;100.00
74552;BME280;63025;55.472;38.432;2023-09-12T07:04:14;100840.81;;;14.48;100.00
74552;BME280;63025;55.472;38.432;2023-09-12T07:06:40;100837.00;;;14.62;100.00
74552;BME280;63025;55.472;38.432;2023-09-12T07:09:21;100836.13;;;14.68;100.00
74552;BME280;63025;55.472;38.432;2023-09-12T07:11:47;100839.81;;;14.81;100.00
74552;BME280;63025;55.472;38.432;2023-09-12T07:14:13;100839.28;;;14.97;100.00
74552;BME280;63025;55.472;38.432;2023-09-12T07:16:40;100839.25;;;15.03;100.00
74552;BME280;63025;55.472;38.432;2023-09-12T07:19:06;100843.91;;;15.21;100.00
74552;BME280;63025;55.472;38.432;2023-09-12T07:21:32;100840.19;;;15.40;100.00
74552;BME280;63025;55.472;38.432;2023-09-12T07:23:58;100831.69;;;15.62;100.00
74552;BME280;63025;55.472;38.432;2023-09-12T07:26:24;100839.72;;;15.93;100.00
74552;BME280;63025;55.472;38.432;2023-09-12T07:28:50;100837.59;;;16.32;100.00
74552;BME280;63025;55.472;38.432;2023-09-12T07:31:15;100834.28;;;16.66;100.00
74552;BME280;63025;55.472;38.432;2023-09-12T07:33:41;100830.63;;;17.14;100.00
74552;BME280;63025;55.472;38.432;2023-09-12T07:36:07;100826.91;;;17.61;100.00
74552;BME280;63025;55.472;38.432;2023-09-12T07:38:32;100830.44;;;18.49;100.00
74552;BME280;63025;55.472;38.432;2023-09-12T07:41:01;100823.22;;;19.61;100.00
74552;BME280;63025;55.472;38.432;2023-09-12T07:43:29;100826.69;;;20.56;100.00
74552;BME280;63025;55.472;38.432;2023-09-12T07:45:56;100826.81;;;21.61;100.00
74552;BME280;63025;55.472;38.432;2023-09-12T07:48:22;100834.50;;;22.02;100.00
74552;BME280;63025;55.472;38.432;2023-09-12T07:50:48;100833.75;;;22.99;100.00
74552;BME280;63025;55.472;38.432;2023-09-12T07:53:14;100823.56;;;23.91;100.00
74552;BME280;63025;55.472;38.432;2023-09-12T07:55:39;100826.78;;;24.77;100.00
74552;BME280;63025;55.472;38.432;2023-09-12T07:58:16;100830.38;;;25.22;100.00
74552;BME280;63025;55.472;38.432;2023-09-12T08:00:45;100823.38;;;25.92;99.55
74552;BME280;63025;55.472;38.432;2023-09-12T08:03:11;100818.34;;;26.66;88.02
74552;BME280;63025;55.472;38.432;2023-09-12T08:05:37;100817.00;;;27.20;79.28
74552;BME280;63025;55.472;38.432;2023-09-12T08:08:03;100829.25;;;27.79;73.69
74552;BME280;63025;55.472;38.432;2023-09-12T08:10:29;100829.97;;;27.98;65.54
74552;BME280;63025;55.472;38.432;2023-09-12T08:12:55;100817.81;;;28.26;62.56
74552;BME280;63025;55.472;38.432;2023-09-12T08:15:21;100814.38;;;29.06;58.53
74552;BME280;63025;55.472;38.432;2023-09-12T08:17:47;100820.91;;;29.10;54.18
74552;BME280;63025;55.472;38.432;2023-09-12T08:20:19;100814.72;;;28.41;53.60
74552;BME280;63025;55.472;38.432;2023-09-12T08:22:44;100819.47;;;29.13;51.78
74552;BME280;63025;55.472;38.432;2023-09-12T08:25:10;100814.13;;;29.16;48.92
74552;BME280;63025;55.472;38.432;2023-09-12T08:27:38;100816.84;;;28.03;49.78
74552;BME280;63025;55.472;38.432;2023-09-12T08:30:04;100810.22;;;28.95;50.09
74552;BME280;63025;55.472;38.432;2023-09-12T08:32:31;100805.34;;;29.01;48.17
74552;BME280;63025;55.472;38.432;2023-09-12T08:34:56;100814.53;;;28.24;48.88
74552;BME280;63025;55.472;38.432;2023-09-12T08:37:22;100811.97;;;28.41;50.44
74552;BME280;63025;55.472;38.432;2023-09-12T08:39:48;100808.31;;;29.49;47.61
74552;BME280;63025;55.472;38.432;2023-09-12T08:42:15;100813.28;;;30.48;45.83
74552;BME280;63025;55.472;38.432;2023-09-12T08:44:42;100804.84;;;31.05;42.97
74552;BME280;63025;55.472;38.432;2023-09-12T08:47:10;100820.06;;;31.16;41.34
74552;BME280;63025;55.472;38.432;2023-09-12T08:49:37;100814.84;;;30.15;42.40
74552;BME280;63025;55.472;38.432;2023-09-12T08:52:06;100808.78;;;30.78;41.80
74552;BME280;63025;55.472;38.432;2023-09-12T08:54:32;100802.28;;;29.47;41.91
74552;BME280;63025;55.472;38.432;2023-09-12T08:57:01;100797.38;;;29.75;41.87
74552;BME280;63025;55.472;38.432;2023-09-12T08:59:29;100796.34;;;30.84;41.12
74552;BME280;63025;55.472;38.432;2023-09-12T09:01:57;100802.91;;;31.23;39.12
74552;BME280;63025;55.472;38.432;2023-09-12T09:04:23;100797.88;;;32.09;37.40
74552;BME280;63025;55.472;38.432;2023-09-12T09:06:53;100795.06;;;32.68;35.54
74552;BME280;63025;55.472;38.432;2023-09-12T09:09:21;100793.00;;;31.68;35.64
74552;BME280;63025;55.472;38.432;2023-09-12T09:11:47;100797.94;;;31.54;35.59
74552;BME280;63025;55.472;38.432;2023-09-12T09:14:13;100790.63;;;32.26;35.00
74552;BME280;63025;55.472;38.432;2023-09-12T09:16:39;100790.69;;;31.62;34.49
74552;BME280;63025;55.472;38.432;2023-09-12T09:19:05;100779.56;;;30.72;34.76
74552;BME280;63025;55.472;38.432;2023-09-12T09:21:36;100786.75;;;29.99;35.20
74552;BME280;63025;55.472;38.432;2023-09-12T09:24:08;100784.06;;;31.37;34.67
74552;BME280;63025;55.472;38.432;2023-09-12T09:26:51;100781.91;;;32.98;33.82
74552;BME280;63025;55.472;38.432;2023-09-12T09:29:19;100772.16;;;32.42;32.07
74552;BME280;63025;55.472;38.432;2023-09-12T09:31:50;100786.59;;;33.39;32.21
74552;BME280;63025;55.472;38.432;2023-09-12T09:34:20;100782.06;;;33.14;31.62
74552;BME280;63025;55.472;38.432;2023-09-12T09:36:56;100781.72;;;33.48;31.47
74552;BME280;63025;55.472;38.432;2023-09-12T09:39:27;100783.56;;;34.02;30.33
74552;BME280;63025;55.472;38.432;2023-09-12T09:41:56;100782.38;;;33.78;30.08
74552;BME280;63025;55.472;38.432;2023-09-12T09:44:23;100780.06;;;34.69;29.45
74552;BME280;63025;55.472;38.432;2023-09-12T09:46:55;100780.25;;;35.44;29.01
74552;BME280;63025;55.472;38.432;2023-09-12T09:49:25;100785.50;;;36.24;27.93
74552;BME280;63025;55.472;38.432;2023-09-12T09:51:54;100773.50;;;36.78;27.35
74552;BME280;63025;55.472;38.432;2023-09-12T09:54:23;100781.91;;;37.36;26.25
74552;BME280;63025;55.472;38.432;2023-09-12T09:56:53;100785.41;;;37.98;25.48
74552;BME280;63025;55.472;38.432;2023-09-12T09:59:23;100784.31;;;38.32;25.28
74552;BME280;63025;55.472;38.432;2023-09-12T10:01:50;100778.06;;;36.86;25.76
74552;BME280;63025;55.472;38.432;2023-09-12T10:04:17;100781.97;;;37.85;25.60
74552;BME280;63025;55.472;38.432;2023-09-12T10:06:45;100775.19;;;37.02;25.46
74552;BME280;63025;55.472;38.432;2023-09-12T10:09:12;100781.75;;;37.09;25.67
74552;BME280;63025;55.472;38.432;2023-09-12T10:11:41;100778.13;;;36.51;24.83
74552;BME280;63025;55.472;38.432;2023-09-12T10:14:08;100773.94;;;36.61;24.62
74552;BME280;63025;55.472;38.432;2023-09-12T10:16:35;100776.94;;;35.54;24.70
74552;BME280;63025;55.472;38.432;2023-09-12T10:19:24;100775.75;;;36.34;23.88
74552;BME280;63025;55.472;38.432;2023-09-12T10:24:24;100768.75;;;35.18;24.67
74552;BME280;63025;55.472;38.432;2023-09-12T10:26:51;100759.94;;;34.11;25.71
74552;BME280;63025;55.472;38.432;2023-09-12T10:29:18;100760.78;;;34.64;25.84
74552;BME280;63025;55.472;38.432;2023-09-12T10:31:45;100771.53;;;35.93;25.23
74552;BME280;63025;55.472;38.432;2023-09-12T10:34:12;100771.72;;;35.68;24.96
74552;BME280;63025;55.472;38.432;2023-09-12T10:36:41;100762.16;;;34.82;26.16
74552;BME280;63025;55.472;38.432;2023-09-12T10:39:09;100778.25;;;32.86;27.97
74552;BME280;63025;55.472;38.432;2023-09-12T10:41:38;100777.69;;;31.45;29.20
74552;BME280;63025;55.472;38.432;2023-09-12T10:44:16;100766.31;;;31.12;30.81
74552;BME280;63025;55.472;38.432;2023-09-12T10:46:44;100769.38;;;31.28;30.38
74552;BME280;63025;55.472;38.432;2023-09-12T10:49:13;100762.41;;;32.98;29.10
74552;BME280;63025;55.472;38.432;2023-09-12T10:51:45;100765.13;;;33.52;27.99
74552;BME280;63025;55.472;38.432;2023-09-12T10:54:36;100770.34;;;31.41;28.14
74552;BME280;63025;55.472;38.432;2023-09-12T10:57:09;100763.38;;;29.07;31.26
74552;BME280;63025;55.472;38.432;2023-09-12T11:02:36;100760.00;;;27.10;35.59
74552;BME280;63025;55.472;38.432;2023-09-12T11:05:04;100759.63;;;26.47;37.63
74552;BME280;63025;55.472;38.432;2023-09-12T11:12:49;100752.50;;;29.64;36.43
74552;BME280;63025;55.472;38.432;2023-09-12T11:15:16;100744.69;;;30.14;32.86
74552;BME280;63025;55.472;38.432;2023-09-12T11:17:44;100744.75;;;28.99;33.07
74552;BME280;63025;55.472;38.432;2023-09-12T11:20:11;100745.56;;;30.84;32.43
74552;BME280;63025;55.472;38.432;2023-09-12T11:22:39;100747.69;;;31.68;31.32
74552;BME280;63025;55.472;38.432;2023-09-12T11:28:01;100740.75;;;33.73;28.32
74552;BME280;63025;55.472;38.432;2023-09-12T11:30:28;100751.75;;;35.11;27.47
74552;BME280;63025;55.472;38.432;2023-09-12T11:32:57;100749.88;;;35.15;26.08
74552;BME280;63025;55.472;38.432;2023-09-12T11:35:26;100737.34;;;35.09;25.66
74552;BME280;63025;55.472;38.432;2023-09-12T11:37:58;100744.53;;;34.54;24.81
74552;BME280;63025;55.472;38.432;2023-09-12T11:40:41;100731.56;;;33.61;25.06
74552;BME280;63025;55.472;38.432;2023-09-12T11:43:08;100732.84;;;33.75;24.83
74552;BME280;63025;55.472;38.432;2023-09-12T11:45:44;100732.47;;;34.38;24.99
74552;BME280;63025;55.472;38.432;2023-09-12T11:48:10;100739.16;;;34.61;24.93
74552;BME280;63025;55.472;38.432;2023-09-12T11:50:36;100734.31;;;34.46;24.52
74552;BME280;63025;55.472;38.432;2023-09-12T11:53:11;100734.56;;;34.16;24.72
74552;BME280;63025;55.472;38.432;2023-09-12T11:55:44;100717.56;;;34.46;24.51
74552;BME280;63025;55.472;38.432;2023-09-12T11:58:12;100729.03;;;33.92;24.91
74552;BME280;63025;55.472;38.432;2023-09-12T12:00:48;100725.44;;;33.92;25.18
74552;BME280;63025;55.472;38.432;2023-09-12T12:03:20;100730.69;;;33.24;26.17
74552;BME280;63025;55.472;38.432;2023-09-12T12:05:47;100722.28;;;32.37;26.94
74552;BME280;63025;55.472;38.432;2023-09-12T12:08:15;100719.91;;;31.97;27.18
74552;BME280;63025;55.472;38.432;2023-09-12T12:10:41;100724.03;;;31.91;27.66
74552;BME280;63025;55.472;38.432;2023-09-12T12:13:20;100721.13;;;32.17;27.34
74552;BME280;63025;55.472;38.432;2023-09-12T12:15:47;100711.22;;;32.70;27.23
74552;BME280;63025;55.472;38.432;2023-09-12T12:18:13;100719.91;;;32.27;26.87
74552;BME280;63025;55.472;38.432;2023-09-12T12:20:39;100715.72;;;31.45;28.15
74552;BME280;63025;55.472;38.432;2023-09-12T12:23:05;100719.28;;;30.47;28.49
74552;BME280;63025;55.472;38.432;2023-09-12T12:25:35;100718.94;;;29.66;29.71
74552;BME280;63025;55.472;38.432;2023-09-12T12:28:04;100723.88;;;29.15;30.55
74552;BME280;63025;55.472;38.432;2023-09-12T12:30:31;100716.50;;;27.34;31.27
74552;BME280;63025;55.472;38.432;2023-09-12T12:33:01;100717.28;;;27.08;32.19
74552;BME280;63025;55.472;38.432;2023-09-12T12:35:28;100717.25;;;27.40;32.99
74552;BME280;63025;55.472;38.432;2023-09-12T12:37:55;100715.38;;;27.22;33.40
74552;BME280;63025;55.472;38.432;2023-09-12T12:40:24;100709.28;;;26.74;33.36
74552;BME280;63025;55.472;38.432;2023-09-12T12:42:51;100714.31;;;25.91;34.77
74552;BME280;63025;55.472;38.432;2023-09-12T12:45:20;100709.53;;;25.49;36.58
74552;BME280;63025;55.472;38.432;2023-09-12T12:47:51;100706.00;;;25.44;37.70
74552;BME280;63025;55.472;38.432;2023-09-12T12:50:17;100705.28;;;25.86;37.10
74552;BME280;63025;55.472;38.432;2023-09-12T12:52:47;100710.44;;;26.86;36.64
74552;BME280;63025;55.472;38.432;2023-09-12T12:55:15;100706.88;;;27.32;35.58